sensor_id;sensor_type;location;lat;lon;timestamp;pressure;altitude;pressure_sealevel;temperature;humidity
33506;BME280;19843;51.040;13.782;2022-09-09T00:01:49;34809.72;;;14.35;100.00
33506;BME280;19843;51.040;13.782;2022-09-09T00:04:25;36147.63;;;14.16;100.00
33506;BME280;19843;51.040;13.782;2022-09-09T00:07:00;35474.75;;;14.19;100.00
33506;BME280;19843;51.040;13.782;2022-09-09T00:09:33;35137.72;;;14.20;100.00
33506;BME280;19843;51.040;13.782;2022-09-09T00:12:10;34801.34;;;14.21;100.00
33506;BME280;19843;51.040;13.782;2022-09-09T00:14:43;35142.88;;;14.28;100.00
33506;BME280;19843;51.040;13.782;2022-09-09T00:17:22;35473.22;;;14.17;100.00
33506;BME280;19843;51.040;13.782;2022-09-09T00:19:57;35476.56;;;14.22;100.00
33506;BME280;19843;51.040;13.782;2022-09-09T00:22:29;35462.25;;;13.99;100.00
33506;BME280;19843;51.040;13.782;2022-09-09T00:25:05;35800.09;;;14.00;100.00
33506;BME280;19843;51.040;13.782;2022-09-09T00:27:40;35458.88;;;13.93;100.00
33506;BME280;19843;51.040;13.782;2022-09-09T00:30:15;34787.25;;;13.98;100.00
33506;BME280;19843;51.040;13.782;2022-09-09T00:32:47;35119.28;;;13.89;100.00
33506;BME280;19843;51.040;13.782;2022-09-09T00:35:18;35789.94;;;13.83;100.00
33506;BME280;19843;51.040;13.782;2022-09-09T00:37:52;35446.38;;;13.72;100.00
33506;BME280;19843;51.040;13.782;2022-09-09T00:40:27;34440.34;;;13.81;100.00
33506;BME280;19843;51.040;13.782;2022-09-09T00:43:12;34774.06;;;13.75;100.00
33506;BME280;19843;51.040;13.782;2022-09-09T00:46:20;34435.00;;;13.72;100.00
33506;BME280;19843;51.040;13.782;2022-09-09T00:49:01;34098.03;;;13.72;100.00
33506;BME280;19843;51.040;13.782;2022-09-09T00:51:43;33759.94;;;13.70;100.00
33506;BME280;19843;51.040;13.782;2022-09-09T00:54:37;33426.53;;;13.76;100.00
33506;BME280;19843;51.040;13.782;2022-09-09T00:57:14;33762.56;;;13.74;100.00
33506;BME280;19843;51.040;13.782;2022-09-09T00:59:51;34095.09;;;13.67;100.00
33506;BME280;19843;51.040;13.782;2022-09-09T01:02:26;34089.22;;;13.57;100.00
33506;BME280;19843;51.040;13.782;2022-09-09T01:05:03;33755.00;;;13.61;100.00
33506;BME280;19843;51.040;13.782;2022-09-09T01:07:33;33423.06;;;13.70;100.00
33506;BME280;19843;51.040;13.782;2022-09-09T01:10:03;33425.38;;;13.74;100.00
33506;BME280;19843;51.040;13.782;2022-09-09T01:12:39;34091.88;;;13.61;100.00
33506;BME280;19843;51.040;13.782;2022-09-09T01:15:12;34094.22;;;13.65;100.00
33506;BME280;19843;51.040;13.782;2022-09-09T01:17:50;34430.25;;;13.64;100.00
33506;BME280;19843;51.040;13.782;2022-09-09T01:20:24;34443.28;;;13.86;100.00
33506;BME280;19843;51.040;13.782;2022-09-09T01:26:15;36444.31;;;13.50;100.00
33506;BME280;19843;51.040;13.782;2022-09-09T01:28:46;34764.50;;;13.59;100.00
33506;BME280;19843;51.040;13.782;2022-09-09T01:31:17;34431.44;;;13.66;100.00
33506;BME280;19843;51.040;13.782;2022-09-09T01:33:47;33769.84;;;13.87;100.00
33506;BME280;19843;51.040;13.782;2022-09-09T01:36:19;34771.09;;;13.70;100.00
33506;BME280;19843;51.040;13.782;2022-09-09T01:38:48;35101.75;;;13.60;100.00
33506;BME280;19843;51.040;13.782;2022-09-09T01:41:17;35433.25;;;13.50;100.00
33506;BME280;19843;51.040;13.782;2022-09-09T01:43:45;35092.09;;;13.43;100.00
33506;BME280;19843;51.040;13.782;2022-09-09T01:46:14;34753.44;;;13.40;100.00
33506;BME280;19843;51.040;13.782;2022-09-09T01:48:43;33079.94;;;13.59;100.00
33506;BME280;19843;51.040;13.782;2022-09-09T01:51:11;34081.56;;;13.43;100.00
33506;BME280;19843;51.040;13.782;2022-09-09T01:53:39;34078.63;;;13.38;100.00
33506;BME280;19843;51.040;13.782;2022-09-09T01:56:17;33408.94;;;13.45;100.00
33506;BME280;19843;51.040;13.782;2022-09-09T01:59:02;33410.38;;;13.47;100.00
33506;BME280;19843;51.040;13.782;2022-09-09T02:01:42;33746.56;;;13.46;100.00
33506;BME280;19843;51.040;13.782;2022-09-09T02:04:22;34412.44;;;13.33;100.00
33506;BME280;19843;51.040;13.782;2022-09-09T02:06:51;34413.63;;;13.35;100.00
33506;BME280;19843;51.040;13.782;2022-09-09T02:09:24;34407.41;;;13.25;100.00
33506;BME280;19843;51.040;13.782;2022-09-09T02:11:55;34076.59;;;13.35;100.00
33506;BME280;19843;51.040;13.782;2022-09-09T02:14:30;34402.38;;;13.16;100.00
33506;BME280;19843;51.040;13.782;2022-09-09T02:17:01;33741.31;;;13.37;100.00
33506;BME280;19843;51.040;13.782;2022-09-09T02:19:32;34408.88;;;13.27;100.00
33506;BME280;19843;51.040;13.782;2022-09-09T02:22:03;34739.66;;;13.17;100.00
33506;BME280;19843;51.040;13.782;2022-09-09T02:24:34;34736.66;;;13.12;100.00
33506;BME280;19843;51.040;13.782;2022-09-09T02:27:05;34405.63;;;13.22;100.00
33506;BME280;19843;51.040;13.782;2022-09-09T02:29:38;33735.50;;;13.27;100.00
33506;BME280;19843;51.040;13.782;2022-09-09T02:32:11;34408.31;;;13.26;100.00
33506;BME280;19843;51.040;13.782;2022-09-09T02:34:43;35073.38;;;13.12;100.00
33506;BME280;19843;51.040;13.782;2022-09-09T02:37:14;35072.16;;;13.10;100.00
33506;BME280;19843;51.040;13.782;2022-09-09T02:39:42;35075.78;;;13.16;100.00
33506;BME280;19843;51.040;13.782;2022-09-09T02:42:10;35410.09;;;13.12;100.00
33506;BME280;19843;51.040;13.782;2022-09-09T02:44:41;35408.88;;;13.10;100.00
33506;BME280;19843;51.040;13.782;2022-09-09T02:47:24;35072.75;;;13.11;100.00
33506;BME280;19843;51.040;13.782;2022-09-09T02:50:01;36074.34;;;12.97;100.00
33506;BME280;19843;51.040;13.782;2022-09-09T02:52:38;35404.00;;;13.02;100.00
33506;BME280;19843;51.040;13.782;2022-09-09T02:55:16;35066.13;;;13.00;100.00
33506;BME280;19843;51.040;13.782;2022-09-09T02:57:46;34730.06;;;13.01;100.00
33506;BME280;19843;51.040;13.782;2022-09-09T03:00:16;35393.34;;;12.84;100.00
33506;BME280;19843;51.040;13.782;2022-09-09T03:02:43;34390.50;;;12.96;100.00
33506;BME280;19843;51.040;13.782;2022-09-09T03:05:11;33719.78;;;13.00;100.00
33506;BME280;19843;51.040;13.782;2022-09-09T03:07:39;33718.63;;;12.98;100.00
33506;BME280;19843;51.040;13.782;2022-09-09T03:10:08;32721.13;;;13.19;100.00
33506;BME280;19843;51.040;13.782;2022-09-09T03:12:37;33717.44;;;12.96;100.00
33506;BME280;19843;51.040;13.782;2022-09-09T03:15:06;33379.53;;;12.93;100.00
33506;BME280;19843;51.040;13.782;2022-09-09T03:17:35;33048.53;;;13.03;100.00
33506;BME280;19843;51.040;13.782;2022-09-09T03:20:03;32719.44;;;13.16;100.00
33506;BME280;19843;51.040;13.782;2022-09-09T03:22:30;33718.63;;;12.98;100.00
33506;BME280;19843;51.040;13.782;2022-09-09T03:24:58;33061.09;;;13.25;100.00
33506;BME280;19843;51.040;13.782;2022-09-09T03:27:26;33725.03;;;13.09;100.00
33506;BME280;19843;51.040;13.782;2022-09-09T03:29:53;34063.38;;;13.12;100.00
33506;BME280;19843;51.040;13.782;2022-09-09T03:32:22;34067.47;;;13.19;100.00
33506;BME280;19843;51.040;13.782;2022-09-09T03:34:53;34075.69;;;13.33;100.00
33506;BME280;19843;51.040;13.782;2022-09-09T03:37:20;35408.88;;;13.10;100.00
33506;BME280;19843;51.040;13.782;2022-09-09T03:39:48;35073.66;;;13.13;100.00
33506;BME280;19843;51.040;13.782;2022-09-09T03:42:16;34739.34;;;13.17;100.00
33506;BME280;19843;51.040;13.782;2022-09-09T03:44:45;35403.69;;;13.01;100.00
33506;BME280;19843;51.040;13.782;2022-09-09T03:47:17;35067.91;;;13.03;100.00
33506;BME280;19843;51.040;13.782;2022-09-09T03:49:45;34730.06;;;13.01;100.00
33506;BME280;19843;51.040;13.782;2022-09-09T03:52:14;34730.97;;;13.02;100.00
33506;BME280;19843;51.040;13.782;2022-09-09T03:54:48;34060.41;;;13.07;100.00
33506;BME280;19843;51.040;13.782;2022-09-09T03:57:16;34730.66;;;13.02;100.00
33506;BME280;19843;51.040;13.782;2022-09-09T03:59:43;34736.97;;;13.13;100.00
33506;BME280;19843;51.040;13.782;2022-09-09T04:02:11;34737.25;;;13.13;100.00
33506;BME280;19843;51.040;13.782;2022-09-09T04:04:38;35408.56;;;13.09;100.00
33506;BME280;19843;51.040;13.782;2022-09-09T04:07:05;35085.44;;;13.32;100.00
33506;BME280;19843;51.040;13.782;2022-09-09T04:09:34;36426.16;;;13.21;100.00
33506;BME280;19843;51.040;13.782;2022-09-09T04:12:02;36425.50;;;13.20;100.00
33506;BME280;19843;51.040;13.782;2022-09-09T04:14:29;36420.50;;;13.12;100.00
33506;BME280;19843;51.040;13.782;2022-09-09T04:16:57;36080.56;;;13.07;100.00
33506;BME280;19843;51.040;13.782;2022-09-09T04:19:25;35745.63;;;13.10;100.00
33506;BME280;19843;51.040;13.782;2022-09-09T04:21:53;35071.84;;;13.09;100.00
33506;BME280;19843;51.040;13.782;2022-09-09T04:24:20;34746.25;;;13.28;100.00
33506;BME280;19843;51.040;13.782;2022-09-09T04:26:49;35754.88;;;13.25;100.00
33506;BME280;19843;51.040;13.782;2022-09-09T04:29:16;35754.25;;;13.24;100.00
33506;BME280;19843;51.040;13.782;2022-09-09T04:31:43;35416.81;;;13.23;100.00
33506;BME280;19843;51.040;13.782;2022-09-09T04:34:11;35084.84;;;13.31;100.00
33506;BME280;19843;51.040;13.782;2022-09-09T04:36:38;35424.72;;;13.36;100.00
33506;BME280;19843;51.040;13.782;2022-09-09T04:39:06;35765.63;;;13.43;100.00
33506;BME280;19843;51.040;13.782;2022-09-09T04:41:34;36115.34;;;13.64;100.00
33506;BME280;19843;51.040;13.782;2022-09-09T04:44:05;37805.47;;;13.70;100.00
33506;BME280;19843;51.040;13.782;2022-09-09T04:46:32;38818.53;;;13.72;100.00
33506;BME280;19843;51.040;13.782;2022-09-09T04:49:00;40514.38;;;13.84;100.00
33506;BME280;19843;51.040;13.782;2022-09-09T04:51:27;41869.19;;;13.89;100.00
33506;BME280;19843;51.040;13.782;2022-09-09T04:53:57;43565.78;;;13.99;100.00
33506;BME280;19843;51.040;13.782;2022-09-09T04:56:25;46272.75;;;14.01;100.00
33506;BME280;19843;51.040;13.782;2022-09-09T04:58:54;47631.19;;;14.07;100.00
33506;BME280;19843;51.040;13.782;2022-09-09T05:01:23;48987.94;;;14.10;100.00
33506;BME280;19843;51.040;13.782;2022-09-09T05:03:51;50338.97;;;14.06;100.00
33506;BME280;19843;51.040;13.782;2022-09-09T05:06:20;51705.22;;;14.18;100.00
33506;BME280;19843;51.040;13.782;2022-09-09T05:08:48;52723.16;;;14.19;100.00
33506;BME280;19843;51.040;13.782;2022-09-09T05:11:17;52050.81;;;14.26;100.00
33506;BME280;19843;51.040;13.782;2022-09-09T05:13:45;53413.16;;;14.32;100.00
33506;BME280;19843;51.040;13.782;2022-09-09T05:16:13;54781.88;;;14.45;100.00
33506;BME280;19843;51.040;13.782;2022-09-09T05:18:43;55118.97;;;14.43;100.00
33506;BME280;19843;51.040;13.782;2022-09-09T05:21:13;55134.84;;;14.60;100.00
33506;BME280;19843;51.040;13.782;2022-09-09T05:23:41;57172.66;;;14.60;100.00
33506;BME280;19843;51.040;13.782;2022-09-09T05:26:12;59565.75;;;14.74;100.00
33506;BME280;19843;51.040;13.782;2022-09-09T05:28:43;64687.31;;;14.90;100.00
33506;BME280;19843;51.040;13.782;2022-09-09T05:31:11;69464.44;;;14.94;100.00
33506;BME280;19843;51.040;13.782;2022-09-09T05:33:40;74265.78;;;15.11;100.00
33506;BME280;19843;51.040;13.782;2022-09-09T05:36:11;79064.59;;;15.20;100.00
33506;BME280;19843;51.040;13.782;2022-09-09T05:38:40;82489.50;;;15.20;100.00
33506;BME280;19843;51.040;13.782;2022-09-09T05:41:09;86265.91;;;15.25;100.00
33506;BME280;19843;51.040;13.782;2022-09-09T05:43:37;89024.41;;;15.34;100.00
33506;BME280;19843;51.040;13.782;2022-09-09T05:46:06;89374.53;;;15.38;100.00
33506;BME280;19843;51.040;13.782;2022-09-09T05:48:35;92145.88;;;15.53;100.00
33506;BME280;19843;51.040;13.782;2022-09-09T05:51:05;96637.59;;;15.66;100.00
33506;BME280;19843;51.040;13.782;2022-09-09T05:53:34;99054.84;;;15.70;100.00
33506;BME280;19843;51.040;13.782;2022-09-09T05:56:03;102171.41;;;15.79;100.00
33506;BME280;19843;51.040;13.782;2022-09-09T05:58:32;108403.72;;;15.89;100.00
33506;BME280;19843;51.040;13.782;2022-09-09T06:01:01;115320.47;;;15.89;100.00
33506;BME280;19843;51.040;13.782;2022-09-09T06:03:28;111171.03;;;15.90;100.00
33506;BME280;19843;51.040;13.782;2022-09-09T06:06:00;112221.81;;;15.97;100.00
33506;BME280;19843;51.040;13.782;2022-09-09T06:08:27;119162.00;;;16.04;100.00
33506;BME280;19843;51.040;13.782;2022-09-09T06:11:02;119520.72;;;16.11;100.00
33506;BME280;19843;51.040;13.782;2022-09-09T06:13:30;124047.09;;;16.18;100.00
33506;BME280;19843;51.040;13.782;2022-09-09T06:15:58;126855.97;;;16.32;100.00
33506;BME280;19843;51.040;13.782;2022-09-09T06:18:26;132047.28;;;16.20;100.00
33506;BME280;19843;51.040;13.782;2022-09-09T06:20:58;134166.53;;;16.34;100.00
33506;BME280;19843;51.040;13.782;2022-09-09T06:23:27;133487.88;;;16.42;100.00
33506;BME280;19843;51.040;13.782;2022-09-09T06:26:04;136635.50;;;16.47;100.00
33506;BME280;19843;51.040;13.782;2022-09-09T06:28:32;142586.56;;;16.55;100.00
33506;BME280;19843;51.040;13.782;2022-09-09T06:31:01;144695.00;;;16.60;100.00
33506;BME280;19843;51.040;13.782;2022-09-09T06:33:31;153219.34;;;16.58;100.00
33506;BME280;19843;51.040;13.782;2022-09-09T06:36:01;154151.94;;;16.64;100.00
33506;BME280;19843;51.040;13.782;2022-09-09T06:38:29;147461.25;;;16.47;100.00
33506;BME280;19843;51.040;13.782;2022-09-09T06:40:58;136978.41;;;16.44;100.00
33506;BME280;19843;51.040;13.782;2022-09-09T06:43:27;136644.66;;;16.51;100.00
33506;BME280;19843;51.040;13.782;2022-09-09T06:45:58;138740.81;;;16.53;100.00
33506;BME280;19843;51.040;13.782;2022-09-09T06:48:26;143662.31;;;16.67;100.00
33506;BME280;19843;51.040;13.782;2022-09-09T06:51:01;146504.47;;;16.85;100.00
33506;BME280;19843;51.040;13.782;2022-09-09T06:53:29;153576.66;;;17.18;100.00
33506;BME280;19843;51.040;13.782;2022-09-09T06:55:59;154382.28;;;17.54;100.00
33506;BME280;19843;51.040;13.782;2022-09-09T06:58:29;154423.75;;;17.70;100.00
33506;BME280;19843;51.040;13.782;2022-09-09T07:01:04;154439.25;;;17.77;100.00
33506;BME280;19843;51.040;13.782;2022-09-09T07:03:32;154483.28;;;17.94;100.00
33506;BME280;19843;51.040;13.782;2022-09-09T07:05:59;154465.19;;;17.87;100.00
33506;BME280;19843;51.040;13.782;2022-09-09T07:08:28;154522.13;;;18.09;100.00
33506;BME280;19843;51.040;13.782;2022-09-09T07:11:01;154558.44;;;18.23;100.00
33506;BME280;19843;51.040;13.782;2022-09-09T07:13:38;154581.72;;;18.32;100.00
33506;BME280;19843;51.040;13.782;2022-09-09T07:16:07;154589.47;;;18.35;100.00
33506;BME280;19843;51.040;13.782;2022-09-09T07:18:34;154537.69;;;18.15;100.00
33506;BME280;19843;51.040;13.782;2022-09-09T07:21:03;154524.72;;;18.10;100.00
33506;BME280;19843;51.040;13.782;2022-09-09T07:23:30;154548.03;;;18.19;100.00
33506;BME280;19843;51.040;13.782;2022-09-09T07:26:02;154590.78;;;18.36;100.00
33506;BME280;19843;51.040;13.782;2022-09-09T07:28:30;154612.84;;;18.44;100.00
33506;BME280;19843;51.040;13.782;2022-09-09T07:31:00;154606.34;;;18.42;100.00
33506;BME280;19843;51.040;13.782;2022-09-09T07:33:30;154688.00;;;18.74;100.00
33506;BME280;19843;51.040;13.782;2022-09-09T07:36:03;154791.66;;;19.14;100.00
33506;BME280;19843;51.040;13.782;2022-09-09T07:38:30;154850.00;;;19.37;100.00
33506;BME280;19843;51.040;13.782;2022-09-09T07:41:03;154908.38;;;19.60;100.00
33506;BME280;19843;51.040;13.782;2022-09-09T07:43:31;154900.56;;;19.57;100.00
33506;BME280;19843;51.040;13.782;2022-09-09T07:46:00;154916.16;;;19.63;100.00
33506;BME280;19843;51.040;13.782;2022-09-09T07:48:29;154944.66;;;19.74;100.00
33506;BME280;19843;51.040;13.782;2022-09-09T07:51:05;154983.56;;;19.89;100.00
33506;BME280;19843;51.040;13.782;2022-09-09T07:53:33;155013.41;;;20.01;100.00
33506;BME280;19843;51.040;13.782;2022-09-09T07:56:03;155082.13;;;20.28;100.00
33506;BME280;19843;51.040;13.782;2022-09-09T07:58:31;155114.63;;;20.40;100.00
33506;BME280;19843;51.040;13.782;2022-09-09T08:01:10;155057.50;;;20.18;100.00
33506;BME280;19843;51.040;13.782;2022-09-09T08:03:38;155017.31;;;20.02;100.00
33506;BME280;19843;51.040;13.782;2022-09-09T08:06:10;155073.06;;;20.24;100.00
33506;BME280;19843;51.040;13.782;2022-09-09T08:08:38;155149.63;;;20.54;100.00
33506;BME280;19843;51.040;13.782;2022-09-09T08:11:09;155170.41;;;20.62;100.00
33506;BME280;19843;51.040;13.782;2022-09-09T08:13:38;155152.25;;;20.55;100.00
33506;BME280;19843;51.040;13.782;2022-09-09T08:16:10;155176.88;;;20.64;100.00
33506;BME280;19843;51.040;13.782;2022-09-09T08:18:39;155219.69;;;20.81;100.00
33506;BME280;19843;51.040;13.782;2022-09-09T08:21:08;155170.41;;;20.62;100.00
33506;BME280;19843;51.040;13.782;2022-09-09T08:23:38;155189.84;;;20.70;100.00
33506;BME280;19843;51.040;13.782;2022-09-09T08:26:11;155175.56;;;20.64;100.00
33506;BME280;19843;51.040;13.782;2022-09-09T08:28:39;155154.84;;;20.56;100.00
33506;BME280;19843;51.040;13.782;2022-09-09T08:31:12;155174.28;;;20.63;100.00
33506;BME280;19843;51.040;13.782;2022-09-09T08:33:41;155232.69;;;20.86;100.00
33506;BME280;19843;51.040;13.782;2022-09-09T08:36:11;155293.63;;;21.10;100.00
33506;BME280;19843;51.040;13.782;2022-09-09T08:38:39;155378.06;;;21.43;100.00
33506;BME280;19843;51.040;13.782;2022-09-09T08:41:23;155331.38;;;21.25;100.00
33506;BME280;19843;51.040;13.782;2022-09-09T08:44:01;155361.19;;;21.36;100.00
33506;BME280;19843;51.040;13.782;2022-09-09T08:46:41;155341.72;;;21.29;100.00
33506;BME280;19843;51.040;13.782;2022-09-09T08:49:19;155339.13;;;21.28;100.00
33506;BME280;19843;51.040;13.782;2022-09-09T08:51:50;155350.81;;;21.32;100.00
33506;BME280;19843;51.040;13.782;2022-09-09T08:54:18;155374.16;;;21.41;100.00
33506;BME280;19843;51.040;13.782;2022-09-09T08:57:12;155346.91;;;21.31;100.00
33506;BME280;19843;51.040;13.782;2022-09-09T08:59:41;155401.41;;;21.52;100.00
33506;BME280;19843;51.040;13.782;2022-09-09T09:02:15;155393.66;;;21.49;100.00
33506;BME280;19843;51.040;13.782;2022-09-09T09:04:58;155454.69;;;21.73;100.00
33506;BME280;19843;51.040;13.782;2022-09-09T09:07:41;155489.72;;;21.86;100.00
33506;BME280;19843;51.040;13.782;2022-09-09T09:10:21;155471.53;;;21.79;100.00
33506;BME280;19843;51.040;13.782;2022-09-09T09:13:12;155429.97;;;21.63;100.00
33506;BME280;19843;51.040;13.782;2022-09-09T09:15:42;155389.75;;;21.47;100.00
33506;BME280;19843;51.040;13.782;2022-09-09T09:18:13;155398.84;;;21.51;100.00
33506;BME280;19843;51.040;13.782;2022-09-09T09:20:49;155396.25;;;21.50;100.00
33506;BME280;19843;51.040;13.782;2022-09-09T09:23:22;155371.59;;;21.40;100.00
33506;BME280;19843;51.040;13.782;2022-09-09T09:25:52;155324.84;;;21.22;100.00
33506;BME280;19843;51.040;13.782;2022-09-09T09:28:24;155074.38;;;20.24;100.00
33506;BME280;19843;51.040;13.782;2022-09-09T09:30:55;154870.81;;;19.45;100.00
33506;BME280;19843;51.040;13.782;2022-09-09T09:33:29;125615.16;;;18.72;100.00
33506;BME280;19843;51.040;13.782;2022-09-09T09:35:58;98806.44;;;18.40;100.00
33506;BME280;19843;51.040;13.782;2022-09-09T09:38:27;85380.19;;;18.69;100.00
33506;BME280;19843;51.040;13.782;2022-09-09T09:41:15;84002.69;;;18.70;100.00
33506;BME280;19843;51.040;13.782;2022-09-09T09:43:53;79190.03;;;18.77;100.00
33506;BME280;19843;51.040;13.782;2022-09-09T09:46:22;74746.84;;;19.00;100.00
33506;BME280;19843;51.040;13.782;2022-09-09T09:49:01;74097.03;;;19.31;100.00
33506;BME280;19843;51.040;13.782;2022-09-09T09:51:30;83102.47;;;19.67;100.00
33506;BME280;19843;51.040;13.782;2022-09-09T09:54:22;93523.03;;;20.00;100.00
33506;BME280;19843;51.040;13.782;2022-09-09T09:56:52;106775.88;;;20.38;100.00
33506;BME280;19843;51.040;13.782;2022-09-09T09:59:22;123210.44;;;20.61;100.00
33506;BME280;19843;51.040;13.782;2022-09-09T10:02:25;155279.34;;;21.04;100.00
33506;BME280;19843;51.040;13.782;2022-09-09T10:05:02;155354.72;;;21.34;100.00
33506;BME280;19843;51.040;13.782;2022-09-09T10:07:30;155440.41;;;21.67;100.00
33506;BME280;19843;51.040;13.782;2022-09-09T10:09:59;155488.41;;;21.86;100.00
33506;BME280;19843;51.040;13.782;2022-09-09T10:12:38;155471.53;;;21.79;100.00
33506;BME280;19843;51.040;13.782;2022-09-09T10:15:22;155463.75;;;21.76;100.00
33506;BME280;19843;51.040;13.782;2022-09-09T10:17:57;155533.94;;;22.04;100.00
33506;BME280;19843;51.040;13.782;2022-09-09T10:20:37;155526.09;;;22.01;100.00
33506;BME280;19843;51.040;13.782;2022-09-09T10:23:17;155494.94;;;21.88;100.00
33506;BME280;19843;51.040;13.782;2022-09-09T10:26:01;155458.53;;;21.74;100.00
33506;BME280;19843;51.040;13.782;2022-09-09T10:28:46;155496.19;;;21.89;100.00
33506;BME280;19843;51.040;13.782;2022-09-09T10:31:25;155513.13;;;21.96;100.00
33506;BME280;19843;51.040;13.782;2022-09-09T10:34:05;155524.81;;;22.00;100.00
33506;BME280;19843;51.040;13.782;2022-09-09T10:36:43;155501.41;;;21.91;100.00
33506;BME280;19843;51.040;13.782;2022-09-09T10:39:23;155554.69;;;22.12;100.00
33506;BME280;19843;51.040;13.782;2022-09-09T10:42:04;155605.31;;;22.31;100.00
33506;BME280;19843;51.040;13.782;2022-09-09T10:44:41;155532.63;;;22.03;100.00
33506;BME280;19843;51.040;13.782;2022-09-09T10:47:35;155643.03;;;22.46;100.00
33506;BME280;19843;51.040;13.782;2022-09-09T10:50:14;155637.81;;;22.44;100.00
33506;BME280;19843;51.040;13.782;2022-09-09T10:52:54;155657.31;;;22.52;100.00
33506;BME280;19843;51.040;13.782;2022-09-09T10:55:35;155674.16;;;22.58;100.00
33506;BME280;19843;51.040;13.782;2022-09-09T10:58:05;155747.00;;;22.87;100.00
33506;BME280;19843;51.040;13.782;2022-09-09T11:00:38;155705.38;;;22.70;100.00
33506;BME280;19843;51.040;13.782;2022-09-09T11:03:17;155701.44;;;22.69;100.00
33506;BME280;19843;51.040;13.782;2022-09-09T11:05:49;155757.38;;;22.91;100.00
33506;BME280;19843;51.040;13.782;2022-09-09T11:08:21;155762.59;;;22.93;100.00
33506;BME280;19843;51.040;13.782;2022-09-09T11:10:53;155672.88;;;22.58;100.00
33506;BME280;19843;51.040;13.782;2022-09-09T11:13:35;155650.81;;;22.49;100.00
33506;BME280;19843;51.040;13.782;2022-09-09T11:16:19;155592.34;;;22.26;100.00
33506;BME280;19843;51.040;13.782;2022-09-09T11:18:49;155614.44;;;22.35;100.00
33506;BME280;19843;51.040;13.782;2022-09-09T11:21:21;155572.88;;;22.19;100.00
33506;BME280;19843;51.040;13.782;2022-09-09T11:23:54;155578.06;;;22.21;100.00
33506;BME280;19843;51.040;13.782;2022-09-09T11:26:30;155533.94;;;22.04;100.00
33506;BME280;19843;51.040;13.782;2022-09-09T11:29:11;155502.69;;;21.91;100.00
33506;BME280;19843;51.040;13.782;2022-09-09T11:31:45;155463.75;;;21.76;100.00
33506;BME280;19843;51.040;13.782;2022-09-09T11:34:21;155489.72;;;21.86;100.00
33506;BME280;19843;51.040;13.782;2022-09-09T11:37:02;155645.59;;;22.47;100.00
33506;BME280;19843;51.040;13.782;2022-09-09T11:39:47;155754.75;;;22.90;100.00
33506;BME280;19843;51.040;13.782;2022-09-09T11:42:20;155809.34;;;23.11;100.00
33506;BME280;19843;51.040;13.782;2022-09-09T11:44:49;155931.56;;;23.58;100.00
33506;BME280;19843;51.040;13.782;2022-09-09T11:47:23;155939.41;;;23.62;100.00
33506;BME280;19843;51.040;13.782;2022-09-09T11:50:07;155847.06;;;23.26;100.00
33506;BME280;19843;51.040;13.782;2022-09-09T11:52:39;155780.81;;;23.00;100.00
33506;BME280;19843;51.040;13.782;2022-09-09T11:55:19;155752.22;;;22.89;100.00
33506;BME280;19843;51.040;13.782;2022-09-09T11:57:57;155754.75;;;22.90;100.00
33506;BME280;19843;51.040;13.782;2022-09-09T12:00:33;155795.03;;;23.05;100.00
33506;BME280;19843;51.040;13.782;2022-09-09T12:03:01;155722.31;;;22.77;100.00
33506;BME280;19843;51.040;13.782;2022-09-09T12:05:36;155752.22;;;22.89;100.00
33506;BME280;19843;51.040;13.782;2022-09-09T12:08:09;155873.06;;;23.36;100.00
33506;BME280;19843;51.040;13.782;2022-09-09T12:10:40;155995.28;;;23.83;100.00
33506;BME280;19843;51.040;13.782;2022-09-09T12:13:09;156069.38;;;24.12;100.00
33506;BME280;19843;51.040;13.782;2022-09-09T12:15:47;156016.06;;;23.91;100.00
33506;BME280;19843;51.040;13.782;2022-09-09T12:18:21;155882.13;;;23.39;100.00
33506;BME280;19843;51.040;13.782;2022-09-09T12:20:55;155861.38;;;23.31;100.00
33506;BME280;19843;51.040;13.782;2022-09-09T12:23:33;155923.78;;;23.55;100.00
33506;BME280;19843;51.040;13.782;2022-09-09T12:26:25;155997.91;;;23.84;100.00
33506;BME280;19843;51.040;13.782;2022-09-09T12:29:04;155879.53;;;23.38;100.00
33506;BME280;19843;51.040;13.782;2022-09-09T12:31:39;155814.56;;;23.13;100.00
33506;BME280;19843;51.040;13.782;2022-09-09T12:34:14;155813.25;;;23.12;100.00
33506;BME280;19843;51.040;13.782;2022-09-09T12:36:48;155767.75;;;22.95;100.00
33506;BME280;19843;51.040;13.782;2022-09-09T12:39:30;155757.38;;;22.91;100.00
33506;BME280;19843;51.040;13.782;2022-09-09T12:42:01;155752.22;;;22.89;100.00
33506;BME280;19843;51.040;13.782;2022-09-09T12:44:30;155796.34;;;23.06;100.00
33506;BME280;19843;51.040;13.782;2022-09-09T12:47:00;155840.53;;;23.23;100.00
33506;BME280;19843;51.040;13.782;2022-09-09T12:49:31;155832.78;;;23.20;100.00
33506;BME280;19843;51.040;13.782;2022-09-09T12:52:03;155793.78;;;23.05;100.00
33506;BME280;19843;51.040;13.782;2022-09-09T12:54:35;155774.28;;;22.97;100.00
33506;BME280;19843;51.040;13.782;2022-09-09T12:57:05;155767.75;;;22.95;100.00
33506;BME280;19843;51.040;13.782;2022-09-09T12:59:37;155749.59;;;22.88;100.00
33506;BME280;19843;51.040;13.782;2022-09-09T13:02:16;155789.88;;;23.03;100.00
33506;BME280;19843;51.040;13.782;2022-09-09T13:04:45;155947.16;;;23.65;100.00
33506;BME280;19843;51.040;13.782;2022-09-09T13:07:13;156025.22;;;23.95;100.00